Archival Weather

Chicago O'Hare International

Chicago, Illinois (KORD)

Report from: Tuesday, May 2, 2023 7:51 AM CDT
Current time: Sunday, February 25, 2024 4:12 PM CST

Current weather – Weather history – Daily summaries
Weather forecast

Temperature7.2°C (45.0°F)
Wind chill3.3°C (37.9°F)
Dew point0.0°C (32.0°F)
Winds 14 kts (7.2 m/s, 16.1 mph) Northwest (310°)
Wind gusts 19 kts (9.8 m/s, 21.9 mph)
Visibility10 mi. (16.1 km)
Clouds Few clouds 3,500 ft. (1,067 m)
Ceiling: Broken clouds 7,500 ft. (2,286 m)
Overcast 14,000 ft. (4,267 m)
Altimeter29.57 in.Hg (1001 mB)
Relative humidity60 %
Density altitude-447 ft. (-136 m)
Sea-level pressure100.2 kPa (1002 mB, 29.58 in.Hg)
Remarks Automated weather observing station with precipitation discriminator
Flight conditions Visual Meteorological Conditions
Raw dataKORD 021251Z 31014G19KT 10SM FEW035 BKN075 OVC140 07/00 A2957 RMK AO2 SLP016 T00720000
An error has occurred. This application may no longer respond until reloaded. Reload 🗙